Volney, New York
Current Conditions -  °F | °C
As of 11:24 AM on Monday 22 Dec 2014 (Local Time) from KFZY Reporting Station
Scattered Clouds Scattered Clouds  
Wind Chill: 29°   Ceiling: Unl
Heat Index: 34°   Visibility: 10mi
Dew Point: 26°   Wind: 6mph
Humidity: 73%   Direction: NA
Pressure: 30.25"   Gusts: NA
Location:  43.3608°N, 76.3536°W
Report Text: KFZY 221624Z AUTO VRB05KT 10SM SCT022 01/M03 A3025 RMK AO2 T00111033
Loading
Personal Weather Stations






























Interactive Weather Map New forecast layout! Learn more

10-Day Weather Forecast

Advertisements
Track Severe Weather on mobile